Time;durP1;ratioP1;P1;durP2;ratioP2;P2;SDS_P1;SDS_P2;PMS_P1;PMS_P2;Temp;Humidity;BMP_temperature;BMP_pressure;BME280_temperature;BME280_humidity;BME280_pressure;Samples;Min_cycle;Max_cycle;Signal;HPM_P1;HPM_P2
2022/07/16 14:48:45;;;;;;;7.63;7.00;;;44.00;21.70;;;35.41;16.60;95927.59;5040941;28;20329;-48
2022/07/16 14:51:14;;;;;;;6.20;5.80;;;44.00;19.20;;;35.66;17.04;95940.28;5017344;28;20392;-50
2022/07/16 14:53:40;;;;;;;7.25;6.65;;;44.50;18.10;;;35.60;16.63;95925.34;5020217;28;20029;-48
2022/07/16 14:56:07;;;;;;;6.50;6.05;;;45.20;17.10;;;35.69;16.56;95933.91;5006327;28;20067;-49
2022/07/16 14:58:33;;;;;;;6.82;6.38;;;45.80;16.50;;;35.48;17.75;95929.47;5006626;28;20041;-49
2022/07/16 15:01:05;;;;;;;8.55;6.47;;;46.30;16.10;;;35.30;17.99;95940.03;5007953;28;20017;-49
2022/07/16 15:03:31;;;;;;;6.57;6.03;;;46.60;15.90;;;36.05;17.49;95928.56;5023183;28;20025;-50
2022/07/16 15:05:57;;;;;;;8.23;7.45;;;47.10;15.70;;;36.12;16.74;95935.97;5007575;28;20025;-52
2022/07/16 15:08:23;;;;;;;6.60;6.05;;;47.50;15.30;;;35.92;17.61;95933.13;5005913;28;20030;-49
2022/07/16 15:10:49;;;;;;;7.43;6.65;;;47.90;15.00;;;36.58;16.66;95926.03;5024498;28;20025;-49
2022/07/16 15:13:18;;;;;;;9.52;8.02;;;48.30;14.80;;;36.80;16.28;95923.63;5027762;28;20186;-49
2022/07/16 15:15:50;;;;;;;8.05;7.55;;;48.90;14.40;;;36.85;17.03;95928.66;5013023;28;20037;-49
2022/07/16 15:18:19;;;;;;;8.18;7.47;;;49.50;14.30;;;37.02;15.95;95926.75;5025558;28;20036;-53
2022/07/16 15:20:45;;;;;;;8.18;7.57;;;49.90;13.90;;;36.63;17.34;95922.75;5009334;28;20468;-53
2022/07/16 15:23:10;;;;;;;7.95;7.18;;;50.40;13.90;;;35.71;17.87;95917.66;5016862;28;20109;-52
2022/07/16 15:25:46;;;;;;;7.88;6.88;;;50.70;13.50;;;35.91;18.12;95923.25;5020927;28;20013;-49
2022/07/16 15:28:14;;;;;;;9.27;8.35;;;50.80;13.30;;;35.94;17.28;95919.63;5012994;28;20607;-53
2022/07/16 15:30:41;;;;;;;8.35;7.53;;;51.10;13.10;;;36.19;17.45;95926.75;5005906;28;20021;-51
2022/07/16 15:35:52;;;;;;;8.77;7.97;;;51.80;12.80;;;36.86;16.34;95924.69;5013630;28;20028;-52
2022/07/16 15:38:21;;;;;;;10.57;9.93;;;52.30;12.50;;;37.16;16.16;95915.31;5004997;28;20025;-53
2022/07/16 15:40:59;;;;;;;10.80;10.13;;;52.90;12.20;;;36.96;15.88;95929.22;5012133;28;20060;-53
2022/07/16 15:43:31;;;;;;;12.05;11.15;;;53.40;12.10;;;37.18;16.00;95923.22;5021557;28;20021;-53
2022/07/16 15:46:01;;;;;;;12.95;12.05;;;54.00;11.90;;;37.31;16.02;95918.56;5001424;28;20035;-52
2022/07/16 15:48:32;;;;;;;12.65;11.85;;;54.40;11.70;;;37.78;15.68;95923.03;5007069;23;20138;-46
2022/07/16 15:51:04;;;;;;;12.57;11.40;;;54.80;11.50;;;38.41;15.22;95925.44;4966514;28;20038;-44
2022/07/16 15:53:32;;;;;;;14.07;13.15;;;55.20;11.40;;;38.01;15.58;95913.75;4967428;28;20038;-51
2022/07/16 15:55:59;;;;;;;12.82;12.10;;;55.50;11.30;;;37.92;15.93;95917.94;4964755;28;20034;-48
2022/07/16 15:58:28;;;;;;;14.55;13.55;;;55.40;11.20;;;37.78;16.36;95923.81;4927221;29;20026;-45
2022/07/16 16:00:57;;;;;;;14.48;13.00;;;55.20;11.20;;;37.89;15.78;95916.00;4934338;29;20085;-49
2022/07/16 16:03:23;;;;;;;12.00;11.07;;;54.90;11.10;;;37.79;16.18;95919.81;4938302;28;20022;-48
2022/07/16 16:05:50;;;;;;;10.85;10.10;;;54.70;11.20;;;37.66;15.96;95925.28;4952366;28;20028;-45
2022/07/16 16:08:22;;;;;;;11.23;10.52;;;54.60;11.10;;;37.45;15.78;95917.44;4953739;28;20031;-46
2022/07/16 16:10:50;;;;;;;9.10;8.50;;;54.40;11.10;;;37.20;15.94;95916.03;4951222;28;20035;-48
2022/07/16 16:13:19;;;;;;;9.65;8.82;;;54.20;11.00;;;37.42;15.24;95921.88;4951920;28;20111;-48
2022/07/16 16:15:45;;;;;;;9.80;8.93;;;54.00;10.90;;;37.57;15.46;95927.13;4944295;28;20026;-45
2022/07/16 16:18:15;;;;;;;10.63;9.20;;;54.10;10.90;;;37.79;15.28;95925.38;4936507;28;20035;-45
2022/07/16 16:20:42;;;;;;;11.07;10.27;;;54.30;10.90;;;38.00;15.33;95914.97;4951926;28;20049;-49
2022/07/16 16:23:08;;;;;;;11.15;10.13;;;54.40;10.90;;;38.27;15.30;95921.00;4935450;28;20624;-44
2022/07/16 16:25:34;;;;;;;10.93;10.05;;;54.70;10.80;;;38.55;15.07;95921.47;4950900;28;20493;-45
2022/07/16 16:28:00;;;;;;;10.82;10.10;;;54.90;10.80;;;38.08;15.13;95922.69;4952634;28;20027;-48
2022/07/16 16:30:33;;;;;;;11.15;10.45;;;55.10;10.70;;;38.16;15.27;95924.06;4935334;28;20019;-46
2022/07/16 16:33:01;;;;;;;11.48;9.82;;;55.10;10.70;;;36.45;15.75;95928.66;4950735;28;20406;-46
2022/07/16 16:35:30;;;;;;;10.38;9.55;;;54.90;10.50;;;36.01;16.58;95919.53;4949386;28;20038;-48
2022/07/16 16:37:57;;;;;;;10.57;9.97;;;54.60;10.60;;;35.82;17.10;95923.00;4948693;28;20026;-46
2022/07/16 16:40:25;;;;;;;8.45;7.95;;;54.30;10.70;;;36.22;16.91;95929.44;4962228;28;20316;-47
2022/07/16 16:42:53;;;;;;;9.98;9.18;;;54.00;10.70;;;36.65;17.86;95925.13;4938868;28;20050;-48
2022/07/16 16:45:20;;;;;;;9.82;9.23;;;54.00;11.10;;;37.31;15.85;95920.56;4968816;28;20030;-47
2022/07/16 16:47:47;;;;;;;10.32;9.55;;;54.10;10.90;;;37.56;15.48;95920.78;4951796;28;20051;-52
2022/07/16 16:50:14;;;;;;;9.82;9.15;;;54.40;10.80;;;37.28;16.05;95925.75;4952432;28;20534;-45
2022/07/16 16:52:43;;;;;;;10.75;9.90;;;54.60;10.80;;;36.73;16.32;95921.78;4951690;28;20389;-47
2022/07/16 16:55:11;;;;;;;9.25;8.48;;;54.50;10.70;;;35.96;17.12;95930.31;4951896;28;20022;-48
2022/07/16 16:57:39;;;;;;;8.73;8.15;;;54.20;10.70;;;36.00;18.15;95926.25;4952147;28;20456;-48
2022/07/16 17:00:12;;;;;;;9.70;8.88;;;53.90;10.90;;;36.08;17.79;95927.72;4934832;28;20027;-52
2022/07/16 17:02:39;;;;;;;8.35;7.70;;;53.60;10.90;;;35.53;17.31;95936.50;4963434;28;20058;-47
2022/07/16 17:05:07;;;;;;;9.02;6.65;;;53.40;10.80;;;35.46;18.19;95937.41;4948518;28;20019;-49
2022/07/16 17:07:34;;;;;;;9.63;7.70;;;53.10;10.90;;;35.72;18.10;95935.03;4951901;28;20031;-51
2022/07/16 17:10:09;;;;;;;8.02;6.95;;;52.80;11.00;;;34.99;18.05;95940.00;4951547;28;20021;-47
2022/07/16 17:12:39;;;;;;;6.60;6.10;;;52.70;11.10;;;35.38;17.78;95933.16;4952249;28;20022;-47
2022/07/16 17:15:07;;;;;;;5.53;5.03;;;52.40;11.00;;;34.97;18.20;95934.09;4968317;28;20121;-48
2022/07/16 17:17:34;;;;;;;5.22;4.15;;;51.40;11.10;;;33.91;19.32;95934.03;4952971;28;20038;-47
2022/07/16 17:20:04;;;;;;;4.53;4.13;;;49.10;11.80;;;32.88;20.46;95927.97;4951806;28;20026;-49
2022/07/16 17:22:32;;;;;;;6.57;3.63;;;46.60;12.70;;;31.63;21.85;95937.25;4932831;28;20035;-47
2022/07/16 17:25:04;;;;;;;4.65;3.60;;;44.20;13.60;;;30.86;23.02;95934.72;4933933;29;20023;-49
2022/07/16 17:27:30;;;;;;;5.85;3.85;;;42.10;14.60;;;30.66;23.30;95933.44;4935546;28;20118;-49
2022/07/16 17:29:56;;;;;;;4.78;3.55;;;40.30;15.40;;;30.24;23.66;95945.00;4947878;28;20030;-48
2022/07/16 17:32:22;;;;;;;4.60;3.30;;;38.80;16.20;;;29.83;24.09;95939.59;4953203;28;20030;-49
2022/07/16 17:34:48;;;;;;;4.60;3.53;;;37.60;16.90;;;29.42;25.08;95931.38;4952546;28;20370;-49
2022/07/16 17:37:14;;;;;;;4.50;3.25;;;36.60;17.60;;;29.03;25.29;95937.28;4935770;28;20019;-49
2022/07/16 17:39:39;;;;;;;7.35;3.22;;;35.70;18.30;;;28.85;26.00;95928.03;4951448;28;20392;-49
2022/07/16 17:42:09;;;;;;;3.70;3.40;;;34.80;19.30;;;28.50;26.96;95927.22;4951190;28;20528;-48
2022/07/16 17:44:35;;;;;;;4.05;3.25;;;34.20;19.50;;;28.12;26.74;95933.72;4932976;28;20034;-52
2022/07/16 17:47:05;;;;;;;4.32;3.65;;;33.60;19.90;;;27.77;27.59;95936.72;4951172;28;20026;-46
2022/07/16 17:52:19;;;;;;;3.95;3.03;;;32.60;20.80;;;27.29;28.62;95928.88;4952719;28;20096;-47
2022/07/16 17:54:45;;;;;;;4.43;3.10;;;32.20;21.30;;;27.15;29.01;95936.81;4942173;28;20015;-52
2022/07/16 17:57:14;;;;;;;3.33;2.92;;;31.80;21.60;;;26.92;29.27;95936.75;4950127;28;20034;-49
2022/07/16 17:59:44;;;;;;;6.88;2.95;;;31.60;22.00;;;26.77;29.76;95941.94;4950332;28;20355;-50
2022/07/16 18:02:11;;;;;;;3.50;3.10;;;31.30;22.50;;;26.69;28.91;95937.47;4938601;28;20027;-53
2022/07/16 18:04:37;;;;;;;5.82;3.10;;;31.00;22.70;;;26.49;29.70;95936.69;4933086;29;20022;-48
2022/07/16 18:07:06;;;;;;;8.15;2.95;;;30.80;22.90;;;26.40;29.75;95944.28;4939014;28;20042;-48
2022/07/16 18:09:37;;;;;;;3.58;3.05;;;30.60;23.10;;;26.17;29.72;95944.19;4946707;28;20513;-48
2022/07/16 18:12:11;;;;;;;5.68;3.05;;;30.40;23.40;;;26.14;30.69;95944.09;4951039;28;20031;-52
2022/07/16 18:14:40;;;;;;;4.40;3.10;;;30.20;23.60;;;26.04;30.91;95948.16;4952224;28;20046;-47
2022/07/16 18:17:12;;;;;;;6.63;3.22;;;30.10;23.90;;;25.90;31.39;95947.84;4966671;28;20027;-47
2022/07/16 18:19:38;;;;;;;5.72;3.30;;;29.90;24.10;;;25.92;31.59;95953.75;4934054;28;20065;-52
2022/07/16 18:22:05;;;;;;;6.10;3.05;;;29.80;24.30;;;25.77;32.10;95955.31;4938438;28;20027;-52
2022/07/16 18:24:31;;;;;;;4.95;3.55;;;29.70;24.70;;;25.69;35.00;95959.00;4947559;28;20019;-47
2022/07/16 18:26:59;;;;;;;5.53;3.17;;;29.50;25.30;;;25.54;36.11;95968.75;4931710;29;20037;-49
2022/07/16 18:29:28;;;;;;;7.20;2.70;;;29.40;25.90;;;25.26;35.87;95964.19;4914866;29;20381;-46
2022/07/16 18:31:54;;;;;;;7.05;2.75;;;29.20;26.20;;;24.95;37.30;95964.09;4932551;29;20031;-47
2022/07/16 18:34:19;;;;;;;3.45;2.80;;;29.00;26.70;;;24.61;35.16;95956.16;4932446;29;20035;-46
2022/07/16 18:36:46;;;;;;;6.22;3.10;;;28.80;26.80;;;24.52;33.95;95971.84;4941978;28;20030;-49
2022/07/16 18:39:13;;;;;;;5.60;2.75;;;28.60;26.70;;;24.57;34.38;95968.88;4938625;28;20113;-51
2022/07/16 18:41:45;;;;;;;3.35;3.05;;;28.50;26.80;;;24.55;34.12;95965.69;4948638;28;20114;-48
2022/07/16 18:44:11;;;;;;;3.85;2.60;;;28.40;26.90;;;24.52;34.75;95969.13;4937966;29;20389;-48
2022/07/16 18:46:39;;;;;;;3.63;2.75;;;28.20;26.90;;;24.39;34.43;95975.72;4950734;28;20027;-46
2022/07/16 18:49:08;;;;;;;3.00;2.60;;;28.10;27.00;;;24.32;34.83;95978.19;4918109;29;20043;-49
2022/07/16 18:51:43;;;;;;;7.22;3.13;;;28.10;27.20;;;24.19;36.09;95975.53;4951859;29;20041;-51
2022/07/16 18:54:10;;;;;;;4.05;2.60;;;28.00;27.70;;;24.02;36.30;95975.75;4950705;29;20393;-51
2022/07/16 18:56:36;;;;;;;4.55;2.80;;;27.80;27.70;;;23.88;36.60;95988.88;4950240;29;20022;-46
2022/07/16 18:59:03;;;;;;;7.43;2.97;;;27.70;27.80;;;23.74;37.86;95979.16;4951096;29;20025;-52
2022/07/16 19:01:32;;;;;;;6.38;3.33;;;27.60;28.20;;;23.51;37.48;95983.41;4966233;28;20462;-48
2022/07/16 19:04:00;;;;;;;5.05;2.60;;;27.40;28.30;;;23.38;39.14;95989.94;4950513;29;20057;-47
2022/07/16 19:06:33;;;;;;;6.90;2.83;;;27.20;28.70;;;23.26;39.83;95988.81;4951458;29;20168;-51
2022/07/16 19:09:05;;;;;;;8.10;2.80;;;27.00;29.20;;;22.98;40.19;95994.03;4950003;29;20031;-47
2022/07/16 19:11:38;;;;;;;4.60;2.77;;;26.80;29.30;;;22.71;41.52;96000.00;4951579;28;20026;-47
2022/07/16 19:14:12;;;;;;;8.50;2.83;;;26.70;29.60;;;22.40;42.26;96009.31;4966072;28;20293;-45
2022/07/16 19:16:42;;;;;;;5.68;2.70;;;26.40;30.00;;;22.29;42.13;96002.72;4951512;29;20031;-47
2022/07/16 19:19:11;;;;;;;7.55;2.90;;;26.20;31.00;;;22.05;43.34;96011.44;4949737;29;20030;-50
2022/07/16 19:21:40;;;;;;;15.73;4.03;;;26.00;30.70;;;21.90;43.29;96005.44;4943853;28;20027;-49
2022/07/16 19:24:09;;;;;;;22.25;3.67;;;25.80;31.90;;;21.60;44.66;96009.25;4932222;29;20505;-50
2022/07/16 19:26:36;;;;;;;18.08;3.65;;;25.50;31.70;;;21.39;44.86;96007.22;4930895;29;20027;-49
2022/07/16 19:29:06;;;;;;;34.00;4.00;;;25.30;32.20;;;21.15;45.56;96015.06;4942551;29;20370;-48
2022/07/16 19:31:35;;;;;;;15.35;3.20;;;25.10;32.60;;;20.92;45.73;96004.44;4930810;29;20019;-47
2022/07/16 19:34:02;;;;;;;6.15;2.75;;;24.90;32.90;;;20.73;46.55;96002.06;4931659;29;20047;-47
2022/07/16 19:36:36;;;;;;;5.45;2.63;;;24.70;33.40;;;20.61;46.26;96010.00;4934491;29;20033;-47
2022/07/16 19:39:03;;;;;;;9.52;2.88;;;24.60;33.60;;;20.49;46.64;96020.63;4918136;29;20555;-51
2022/07/16 19:41:29;;;;;;;9.85;2.60;;;24.40;33.90;;;20.45;46.71;96022.41;4936247;28;20448;-45
2022/07/16 19:43:55;;;;;;;10.80;2.90;;;24.20;34.20;;;20.34;46.99;96022.72;4960463;28;20018;-46
2022/07/16 19:46:26;;;;;;;3.95;2.55;;;24.10;34.50;;;20.23;47.30;96029.53;4967795;28;20034;-46
2022/07/16 19:48:54;;;;;;;11.35;2.88;;;24.00;35.00;;;20.11;47.28;96038.22;4950625;28;20069;-47
2022/07/16 19:51:20;;;;;;;14.65;2.60;;;23.90;35.10;;;19.97;46.96;96037.56;4954024;28;20428;-48
2022/07/16 19:53:46;;;;;;;8.88;2.78;;;23.70;35.20;;;19.99;47.05;96038.03;4962243;28;20053;-48
2022/07/16 19:59:02;;;;;;;9.32;3.00;;;23.60;35.60;;;20.14;46.11;96052.25;4966975;28;20045;-46
2022/07/16 20:01:31;;;;;;;7.15;2.50;;;23.50;35.60;;;20.30;44.38;96069.63;4941612;28;20407;-49
2022/07/16 20:03:57;;;;;;;9.90;3.40;;;23.50;35.60;;;20.42;44.84;96067.09;4933917;29;20066;-52
2022/07/16 20:06:24;;;;;;;6.22;3.30;;;23.60;35.70;;;20.50;44.48;96079.06;4934482;29;20059;-48
2022/07/16 20:08:50;;;;;;;3.30;2.38;;;23.60;35.70;;;20.62;44.43;96067.63;4942183;28;20034;-45
2022/07/16 20:11:16;;;;;;;7.85;2.90;;;23.70;35.70;;;20.78;43.66;96087.75;4937715;28;20139;-48
2022/07/16 20:13:42;;;;;;;5.95;2.55;;;23.70;35.70;;;20.92;43.36;96085.66;4922766;29;20486;-46
2022/07/16 20:16:08;;;;;;;5.18;2.33;;;23.80;35.70;;;21.00;42.94;96084.09;4934722;28;20045;-51
2022/07/16 20:18:34;;;;;;;9.30;2.60;;;23.90;35.60;;;21.05;43.03;96092.03;4951561;28;20464;-52
2022/07/16 20:21:00;;;;;;;6.32;2.40;;;24.00;35.50;;;21.06;42.76;96098.22;4948891;28;20055;-49
2022/07/16 20:23:26;;;;;;;4.15;2.40;;;24.10;35.40;;;21.10;42.36;96085.66;4933215;29;20030;-52
2022/07/16 20:25:52;;;;;;;13.18;2.80;;;24.10;35.20;;;21.13;42.25;96093.16;4945561;28;20035;-50
2022/07/16 20:28:21;;;;;;;6.95;2.28;;;24.20;35.20;;;21.12;42.32;96094.25;4932529;28;20445;-49
2022/07/16 20:30:46;;;;;;;8.20;2.40;;;24.30;35.20;;;21.07;42.19;96094.44;4932613;29;20023;-48
2022/07/16 20:33:18;;;;;;;4.20;2.30;;;24.30;35.00;;;21.05;42.00;96105.56;4933697;29;20081;-51
2022/07/16 20:35:44;;;;;;;2.85;1.98;;;24.30;34.80;;;21.02;41.43;96106.19;4917147;29;20111;-48
2022/07/16 20:38:10;;;;;;;6.25;2.10;;;24.30;34.60;;;21.03;41.40;96107.81;4935992;28;20102;-46
2022/07/16 20:40:39;;;;;;;3.38;2.03;;;24.30;34.50;;;20.98;41.45;96111.47;4953968;28;20019;-48
2022/07/16 20:43:05;;;;;;;3.95;2.22;;;24.30;34.40;;;20.92;40.91;96120.06;4951786;28;20026;-49
2022/07/16 20:45:32;;;;;;;3.05;1.77;;;24.30;34.30;;;20.93;41.30;96116.22;4951228;28;20500;-49
2022/07/16 20:48:00;;;;;;;3.65;1.92;;;24.20;34.10;;;20.89;40.93;96118.78;4905817;28;24408;-46
2022/07/16 20:50:29;;;;;;;4.68;1.85;;;24.20;34.10;;;20.84;40.80;96113.53;4971330;28;20033;-48
2022/07/16 20:52:55;;;;;;;5.57;1.77;;;24.20;34.00;;;20.79;40.75;96113.69;4971020;28;20030;-51
2022/07/16 20:55:32;;;;;;;5.43;1.92;;;24.20;33.90;;;20.79;40.80;96114.47;4972231;28;20029;-48
2022/07/16 20:57:59;;;;;;;2.47;1.70;;;24.20;34.00;;;20.71;40.89;96115.25;4971324;28;20113;-50
2022/07/16 21:00:25;;;;;;;3.03;1.65;;;24.10;33.80;;;20.68;40.93;96118.63;4970895;28;20572;-51
2022/07/16 21:02:51;;;;;;;4.35;1.30;;;24.10;33.80;;;20.65;40.89;96121.13;4971285;28;20096;-47
2022/07/16 21:05:20;;;;;;;5.15;1.50;;;24.10;33.70;;;20.60;40.98;96124.81;4970732;28;20026;-53
2022/07/16 21:07:46;;;;;;;4.70;1.80;;;24.00;33.70;;;20.61;40.72;96123.69;4971492;28;20045;-47
2022/07/16 21:10:18;;;;;;;13.85;2.15;;;24.00;33.70;;;20.58;40.72;96128.94;4959594;28;20037;-49
2022/07/16 21:12:44;;;;;;;8.68;1.85;;;24.00;33.80;;;20.58;41.00;96135.13;4971840;28;20033;-47
2022/07/16 21:15:11;;;;;;;2.65;1.45;;;23.90;33.80;;;20.57;41.02;96128.13;4971853;28;20413;-50
2022/07/16 21:17:39;;;;;;;4.15;1.65;;;23.90;34.40;;;20.50;41.06;96138.59;4970797;28;20329;-48
2022/07/16 21:20:06;;;;;;;5.80;1.92;;;23.90;33.80;;;20.43;41.26;96132.84;4961865;28;20359;-48
2022/07/16 21:22:33;;;;;;;2.97;1.67;;;23.90;33.90;;;20.38;41.54;96146.53;4952021;28;20118;-54
2022/07/16 21:24:59;;;;;;;6.95;1.85;;;23.80;34.00;;;20.33;41.64;96148.22;4967188;28;20030;-51
2022/07/16 21:27:28;;;;;;;6.28;1.92;;;23.80;34.00;;;20.29;41.68;96151.91;4951773;28;20474;-50
2022/07/16 21:29:54;;;;;;;2.95;1.50;;;23.80;34.00;;;20.26;41.53;96153.31;4967156;28;20142;-48
2022/07/16 21:32:20;;;;;;;3.22;1.60;;;23.70;34.00;;;20.21;41.74;96147.22;4967141;28;20843;-50
2022/07/16 21:34:52;;;;;;;4.60;1.48;;;23.70;34.10;;;20.19;41.81;96144.06;4952785;28;20101;-49
2022/07/16 21:37:17;;;;;;;3.45;1.50;;;23.70;34.30;;;20.14;41.92;96147.69;4946395;28;20398;-50
